createdAt,value
2022-11-25T00:02:00.690Z,2.40
2022-11-25T00:04:37.105Z,2.30
2022-11-25T00:07:07.223Z,2.20
2022-11-25T00:09:37.159Z,2.20
2022-11-25T00:12:07.407Z,2.10
2022-11-25T00:14:39.957Z,2.00
2022-11-25T00:17:09.835Z,1.90
2022-11-25T00:19:39.666Z,2.00
2022-11-25T00:22:09.559Z,1.90
2022-11-25T00:24:39.395Z,1.80
2022-11-25T00:27:09.293Z,1.90
2022-11-25T00:29:43.961Z,1.80
2022-11-25T00:32:13.918Z,1.80
2022-11-25T00:34:43.751Z,1.80
2022-11-25T00:37:13.678Z,1.80
2022-11-25T00:39:43.637Z,1.80
2022-11-25T00:42:26.092Z,1.80
2022-11-25T00:44:58.978Z,1.70
2022-11-25T00:47:29.616Z,1.80
2022-11-25T00:49:59.612Z,1.70
2022-11-25T00:52:30.608Z,1.70
2022-11-25T00:55:00.537Z,1.80
2022-11-25T00:57:30.520Z,1.70
2022-11-25T01:00:03.168Z,1.70
2022-11-25T01:02:33.171Z,1.70
2022-11-25T01:05:03.123Z,1.70
2022-11-25T01:07:33.066Z,1.80
2022-11-25T01:10:03.214Z,1.80
2022-11-25T01:12:33.295Z,1.80
2022-11-25T01:15:06.873Z,1.70
2022-11-25T01:17:37.705Z,1.70
2022-11-25T01:20:10.005Z,1.70
2022-11-25T01:22:42.623Z,1.70
2022-11-25T01:25:13.033Z,1.70
2022-11-25T01:27:43.247Z,1.80
2022-11-25T01:30:16.161Z,1.90
2022-11-25T01:32:46.109Z,1.90
2022-11-25T01:35:16.188Z,2.00
2022-11-25T01:37:46.103Z,2.30
2022-11-25T01:40:16.300Z,2.30
2022-11-25T01:42:47.411Z,2.20
2022-11-25T01:45:36.518Z,2.20
2022-11-25T01:48:12.020Z,2.20
2022-11-25T01:50:42.715Z,2.20
2022-11-25T01:53:14.047Z,2.20
2022-11-25T01:55:47.081Z,2.20
2022-11-25T01:58:19.605Z,2.20
2022-11-25T02:00:54.035Z,2.10
2022-11-25T02:03:26.563Z,2.10
2022-11-25T02:06:02.682Z,2.10
2022-11-25T02:08:34.182Z,2.20
2022-11-25T02:11:05.359Z,2.20
2022-11-25T02:13:36.237Z,2.20
2022-11-25T02:16:08.992Z,2.20
2022-11-25T02:18:39.012Z,2.20
2022-11-25T02:21:09.481Z,2.20
2022-11-25T02:23:44.240Z,2.20
2022-11-25T02:26:16.800Z,2.30
2022-11-25T02:28:47.643Z,2.20
2022-11-25T02:31:22.907Z,2.20
2022-11-25T02:33:53.012Z,2.20
2022-11-25T02:36:25.052Z,2.20
2022-11-25T02:38:57.063Z,2.20
2022-11-25T02:41:33.850Z,2.10
2022-11-25T02:44:08.081Z,2.10
2022-11-25T02:46:39.036Z,2.10
2022-11-25T02:49:10.505Z,2.10
2022-11-25T02:51:44.074Z,2.00
2022-11-25T02:54:14.338Z,2.00
2022-11-25T02:56:47.772Z,2.10
2022-11-25T02:59:17.658Z,2.10
2022-11-25T03:01:48.942Z,2.20
2022-11-25T03:04:18.830Z,2.10
2022-11-25T03:06:48.745Z,2.10
2022-11-25T03:09:18.670Z,2.10
2022-11-25T03:12:03.625Z,2.10
2022-11-25T03:14:33.714Z,2.20
2022-11-25T03:17:04.669Z,2.20
2022-11-25T03:19:34.656Z,2.20
2022-11-25T03:22:04.759Z,2.20
2022-11-25T03:24:36.607Z,2.20
2022-11-25T03:27:09.565Z,2.10
2022-11-25T03:29:40.290Z,2.20
2022-11-25T03:32:11.047Z,2.20
2022-11-25T03:34:42.010Z,2.10
2022-11-25T03:37:12.762Z,2.20
2022-11-25T03:39:42.914Z,2.10
2022-11-25T03:42:15.551Z,2.20
2022-11-25T03:44:46.107Z,2.20
2022-11-25T03:47:16.568Z,2.20
2022-11-25T03:49:46.835Z,2.30
2022-11-25T03:52:17.310Z,2.30
2022-11-25T03:54:48.034Z,2.30
2022-11-25T03:57:26.789Z,2.30
2022-11-25T03:59:57.492Z,2.30
2022-11-25T04:02:27.969Z,2.30
2022-11-25T04:04:58.263Z,2.30
2022-11-25T04:07:28.388Z,2.30
2022-11-25T04:10:00.499Z,2.40
2022-11-25T04:12:52.608Z,2.40
2022-11-25T04:15:27.130Z,2.40
2022-11-25T04:18:00.337Z,2.40
2022-11-25T04:20:30.370Z,2.40
2022-11-25T04:23:06.916Z,2.40
2022-11-25T04:25:39.898Z,2.40
2022-11-25T04:28:17.708Z,2.40
2022-11-25T04:30:47.759Z,2.30
2022-11-25T04:33:17.795Z,2.40
2022-11-25T04:35:50.356Z,2.30
2022-11-25T04:38:20.319Z,2.30
2022-11-25T04:40:51.579Z,2.20
2022-11-25T04:43:27.323Z,2.20
2022-11-25T04:46:15.683Z,2.20
2022-11-25T04:48:49.410Z,2.20
2022-11-25T04:51:19.824Z,2.20
2022-11-25T04:53:49.663Z,2.20
2022-11-25T04:56:21.293Z,2.30
2022-11-25T04:59:09.139Z,2.30
2022-11-25T05:01:43.000Z,2.30
2022-11-25T05:04:23.993Z,2.30
2022-11-25T05:06:54.200Z,2.30
2022-11-25T05:09:26.215Z,2.30
2022-11-25T05:12:24.325Z,2.30
2022-11-25T05:14:57.140Z,2.40
2022-11-25T05:17:29.149Z,2.40
2022-11-25T05:19:59.448Z,2.40
2022-11-25T05:22:31.096Z,2.40
2022-11-25T05:25:01.555Z,2.30
2022-11-25T05:27:32.874Z,2.30
2022-11-25T05:30:13.608Z,2.20
2022-11-25T05:32:44.945Z,2.20
2022-11-25T05:35:14.858Z,2.30
2022-11-25T05:37:46.957Z,2.50
2022-11-25T05:40:17.394Z,2.50
2022-11-25T05:43:03.425Z,2.60
2022-11-25T05:45:37.810Z,2.60
2022-11-25T05:48:08.782Z,2.70
2022-11-25T05:50:40.022Z,2.80
2022-11-25T05:53:20.219Z,2.80
2022-11-25T05:55:57.129Z,2.90
2022-11-25T05:58:45.931Z,3.00
2022-11-25T06:01:20.440Z,3.00
2022-11-25T06:03:51.164Z,3.10
2022-11-25T06:06:22.054Z,3.10
2022-11-25T06:08:52.022Z,3.10
2022-11-25T06:11:21.961Z,3.20
2022-11-25T06:13:51.854Z,3.20
2022-11-25T06:16:25.923Z,3.20
2022-11-25T06:18:55.736Z,3.30
2022-11-25T06:21:25.708Z,3.30
2022-11-25T06:23:55.635Z,3.20
2022-11-25T06:26:26.371Z,3.20
2022-11-25T06:28:57.542Z,3.10
2022-11-25T06:31:30.007Z,3.20
2022-11-25T06:34:42.135Z,3.40
2022-11-25T06:37:21.368Z,3.50
2022-11-25T06:39:51.250Z,3.70
2022-11-25T06:42:21.057Z,3.80
2022-11-25T06:44:50.940Z,3.80
2022-11-25T06:47:23.402Z,3.80
2022-11-25T06:49:53.693Z,3.70
2022-11-25T06:52:23.920Z,3.60
2022-11-25T06:54:54.100Z,3.40
2022-11-25T06:57:23.962Z,3.40
2022-11-25T06:59:54.269Z,3.50
2022-11-25T07:02:26.805Z,3.50
2022-11-25T07:04:56.788Z,3.40
2022-11-25T07:07:26.704Z,3.50
2022-11-25T07:09:56.619Z,3.50
2022-11-25T07:12:26.543Z,3.50
2022-11-25T07:14:56.444Z,3.50
2022-11-25T07:17:28.859Z,3.40
2022-11-25T07:19:58.646Z,3.40
2022-11-25T07:22:28.529Z,3.40
2022-11-25T07:24:58.392Z,3.50
2022-11-25T07:27:28.273Z,3.50
2022-11-25T07:30:41.142Z,3.50
2022-11-25T07:32:50.673Z,3.50
2022-11-25T07:35:20.702Z,3.50
2022-11-25T07:37:50.530Z,3.60
2022-11-25T07:40:20.674Z,3.60
2022-11-25T07:42:50.570Z,3.60
2022-11-25T07:45:20.952Z,3.60
2022-11-25T07:47:58.094Z,3.60
2022-11-25T07:50:28.054Z,3.70
2022-11-25T07:52:57.891Z,3.70
2022-11-25T07:55:27.720Z,3.80
2022-11-25T07:57:57.679Z,3.80
2022-11-25T08:00:27.771Z,3.90
2022-11-25T08:03:00.385Z,4.00
2022-11-25T08:05:30.446Z,4.00
2022-11-25T08:08:00.431Z,4.00
2022-11-25T08:10:30.361Z,4.00
2022-11-25T08:13:00.344Z,4.00
2022-11-25T08:15:30.239Z,4.00
2022-11-25T08:18:02.750Z,4.10
2022-11-25T08:20:32.813Z,4.10
2022-11-25T08:23:02.815Z,4.30
2022-11-25T08:25:32.860Z,4.30
2022-11-25T08:28:02.861Z,4.40
2022-11-25T08:30:32.696Z,4.40
2022-11-25T08:33:07.501Z,4.60
2022-11-25T08:35:38.885Z,4.70
2022-11-25T08:38:09.133Z,4.80
2022-11-25T08:40:40.038Z,4.90
2022-11-25T08:43:10.037Z,5.00
2022-11-25T08:45:39.925Z,5.20
2022-11-25T08:48:12.552Z,5.40
2022-11-25T08:50:42.579Z,5.60
2022-11-25T08:53:12.509Z,5.70
2022-11-25T08:55:42.472Z,5.80
2022-11-25T08:58:13.433Z,6.00
2022-11-25T09:00:43.892Z,6.20
2022-11-25T09:03:16.773Z,6.40
2022-11-25T09:05:47.193Z,6.50
2022-11-25T09:08:17.167Z,6.70
2022-11-25T09:10:47.254Z,6.80
2022-11-25T09:13:17.203Z,6.90
2022-11-25T09:15:47.166Z,6.80
2022-11-25T09:18:20.464Z,6.90
2022-11-25T09:20:50.596Z,6.90
2022-11-25T09:23:20.513Z,6.90
2022-11-25T09:25:54.083Z,6.90
2022-11-25T09:28:24.380Z,7.00
2022-11-25T09:30:57.417Z,7.00
2022-11-25T09:33:30.005Z,7.00
2022-11-25T09:36:03.105Z,7.00
2022-11-25T09:38:33.106Z,7.00
2022-11-25T09:41:05.695Z,7.00
2022-11-25T09:43:56.115Z,7.00
2022-11-25T09:46:46.265Z,7.00
2022-11-25T09:49:41.757Z,7.00
2022-11-25T09:52:16.363Z,7.00
2022-11-25T09:54:49.688Z,7.10
2022-11-25T09:57:25.154Z,7.20
2022-11-25T10:00:03.918Z,7.30
2022-11-25T10:02:45.166Z,7.40
2022-11-25T10:05:24.050Z,7.40
2022-11-25T10:07:56.508Z,7.50
2022-11-25T10:10:31.004Z,7.50
2022-11-25T10:13:02.568Z,7.50
2022-11-25T10:15:37.130Z,7.60
2022-11-25T10:18:13.715Z,7.70
2022-11-25T10:20:46.915Z,7.60
2022-11-25T10:23:27.661Z,7.80
2022-11-25T10:26:01.456Z,7.80
2022-11-25T10:28:36.658Z,7.70
2022-11-25T10:31:10.172Z,7.70
2022-11-25T10:33:42.933Z,7.80
2022-11-25T10:36:18.891Z,7.80
2022-11-25T10:38:55.452Z,7.90
2022-11-25T10:41:29.311Z,7.90
2022-11-25T10:43:59.284Z,7.90
2022-11-25T10:47:11.182Z,7.90
2022-11-25T10:49:31.648Z,7.90
2022-11-25T10:52:04.293Z,7.90
2022-11-25T10:54:34.499Z,8.00
2022-11-25T10:57:05.867Z,8.00
2022-11-25T10:59:37.448Z,7.90
2022-11-25T11:02:19.754Z,7.90
2022-11-25T11:04:59.379Z,8.00
2022-11-25T11:07:36.908Z,7.80
2022-11-25T11:10:22.877Z,7.60
2022-11-25T11:13:01.835Z,7.70
2022-11-25T11:15:33.595Z,7.70
2022-11-25T11:18:18.037Z,7.70
2022-11-25T11:20:50.096Z,7.70
2022-11-25T11:23:22.735Z,7.80
2022-11-25T11:26:01.635Z,7.80
2022-11-25T11:28:37.050Z,7.80
2022-11-25T11:31:09.590Z,7.70
2022-11-25T11:33:46.260Z,7.80
2022-11-25T11:36:37.580Z,7.70
2022-11-25T11:39:25.539Z,7.60
2022-11-25T11:41:59.457Z,7.60
2022-11-25T11:44:35.388Z,7.60
2022-11-25T11:47:16.781Z,7.70
2022-11-25T11:50:01.177Z,7.70
2022-11-25T11:52:36.037Z,7.70
2022-11-25T11:55:28.082Z,7.80
2022-11-25T11:58:04.612Z,7.70
2022-11-25T12:00:42.000Z,7.70
2022-11-25T12:03:16.353Z,7.80
2022-11-25T12:05:46.696Z,7.90
2022-11-25T12:08:19.033Z,7.90
2022-11-25T12:10:54.900Z,8.00
2022-11-25T12:13:32.563Z,8.10
2022-11-25T12:16:08.240Z,8.10
2022-11-25T12:18:52.370Z,8.20
2022-11-25T12:21:41.689Z,8.00
2022-11-25T12:24:19.622Z,8.10
2022-11-25T12:26:56.878Z,8.00
2022-11-25T12:29:34.111Z,8.00
2022-11-25T12:32:12.956Z,8.00
2022-11-25T12:34:46.303Z,7.90
2022-11-25T12:37:21.248Z,7.90
2022-11-25T12:39:54.905Z,7.90
2022-11-25T12:42:28.640Z,7.90
2022-11-25T12:45:03.707Z,7.90
2022-11-25T12:47:33.790Z,7.90
2022-11-25T12:50:03.861Z,7.90
2022-11-25T12:52:45.472Z,7.90
2022-11-25T12:55:18.978Z,8.00
2022-11-25T12:58:28.428Z,8.00
2022-11-25T13:01:30.992Z,8.10
2022-11-25T13:04:26.547Z,8.00
2022-11-25T13:07:26.454Z,8.00
2022-11-25T13:10:18.819Z,8.00
2022-11-25T13:13:00.940Z,8.00
2022-11-25T13:15:35.033Z,8.10
2022-11-25T13:18:07.097Z,8.30
2022-11-25T13:20:40.576Z,8.40
2022-11-25T13:23:13.213Z,8.50
2022-11-25T13:25:44.857Z,8.60
2022-11-25T13:28:33.592Z,8.60
2022-11-25T13:31:27.796Z,8.50
2022-11-25T13:34:06.092Z,8.30
2022-11-25T13:36:51.656Z,8.10
2022-11-25T13:39:22.388Z,8.00
2022-11-25T13:42:00.397Z,8.00
2022-11-25T13:44:32.796Z,8.00
2022-11-25T13:47:26.584Z,7.90
2022-11-25T13:49:58.143Z,7.90
2022-11-25T13:52:40.547Z,7.70
2022-11-25T13:55:24.743Z,7.50
2022-11-25T13:58:06.842Z,7.40
2022-11-25T14:01:29.230Z,7.20
2022-11-25T14:04:03.562Z,7.10
2022-11-25T14:07:00.179Z,7.00
2022-11-25T14:09:41.378Z,7.00
2022-11-25T14:12:35.256Z,6.80
2022-11-25T14:15:32.242Z,6.90
2022-11-25T14:19:03.212Z,6.80
2022-11-25T14:21:33.739Z,6.60
2022-11-25T14:24:15.432Z,6.70
2022-11-25T14:26:50.386Z,6.70
2022-11-25T14:29:23.650Z,6.70
2022-11-25T14:31:57.344Z,6.70
2022-11-25T14:34:30.967Z,6.70
2022-11-25T14:37:11.230Z,6.60
2022-11-25T14:39:45.527Z,6.60
2022-11-25T14:42:17.980Z,6.70
2022-11-25T14:44:50.431Z,6.70
2022-11-25T14:47:24.873Z,6.80
2022-11-25T14:50:18.809Z,6.60
2022-11-25T14:52:48.624Z,6.60
2022-11-25T14:55:27.953Z,6.40
2022-11-25T14:57:57.588Z,6.40
2022-11-25T15:00:27.607Z,6.40
2022-11-25T15:03:00.056Z,6.50
2022-11-25T15:05:34.886Z,6.40
2022-11-25T15:08:14.089Z,6.30
2022-11-25T15:10:46.637Z,6.20
2022-11-25T15:13:23.889Z,6.20
2022-11-25T15:15:55.720Z,6.10
2022-11-25T15:18:27.174Z,6.20
2022-11-25T15:21:00.031Z,6.20
2022-11-25T15:23:34.962Z,6.10
2022-11-25T15:26:05.730Z,6.10
2022-11-25T15:28:39.846Z,6.10
2022-11-25T15:31:12.771Z,6.10
2022-11-25T15:33:43.172Z,6.10
2022-11-25T15:36:13.623Z,6.10
2022-11-25T15:38:47.762Z,6.00
2022-11-25T15:41:22.795Z,6.00
2022-11-25T15:43:54.249Z,5.90
2022-11-25T15:46:25.083Z,6.00
2022-11-25T15:48:56.723Z,5.90
2022-11-25T15:51:34.432Z,5.80
2022-11-25T15:54:09.242Z,5.70
2022-11-25T15:56:41.015Z,5.80
2022-11-25T15:59:40.731Z,5.80
2022-11-25T16:02:32.926Z,5.70
2022-11-25T16:05:21.811Z,5.70
2022-11-25T16:08:03.415Z,5.60
2022-11-25T16:10:37.826Z,5.60
2022-11-25T16:13:38.029Z,5.40
2022-11-25T16:16:29.513Z,5.40
2022-11-25T16:19:15.988Z,5.40
2022-11-25T16:21:49.579Z,5.30
2022-11-25T16:24:29.139Z,5.30
2022-11-25T16:27:03.601Z,5.20
2022-11-25T16:29:35.904Z,5.20
2022-11-25T16:32:16.559Z,5.10
2022-11-25T16:34:47.493Z,5.10
2022-11-25T16:37:17.382Z,5.10
2022-11-25T16:39:47.216Z,5.10
2022-11-25T16:42:23.940Z,5.00
2022-11-25T16:44:54.901Z,4.90
2022-11-25T16:47:26.395Z,4.90
2022-11-25T16:49:56.287Z,4.80
2022-11-25T16:52:26.137Z,4.80
2022-11-25T16:54:56.019Z,4.80
2022-11-25T16:57:28.557Z,4.80
2022-11-25T17:00:01.031Z,4.90
2022-11-25T17:02:31.120Z,4.80
2022-11-25T17:05:02.190Z,4.80
2022-11-25T17:07:33.531Z,4.80
2022-11-25T17:10:03.912Z,4.80
2022-11-25T17:12:37.309Z,4.90
2022-11-25T17:15:09.825Z,4.90
2022-11-25T17:17:39.855Z,4.80
2022-11-25T17:20:13.719Z,4.80
2022-11-25T17:22:43.729Z,4.80
2022-11-25T17:25:14.744Z,4.90
2022-11-25T17:27:48.239Z,4.80
2022-11-25T17:30:21.772Z,5.00
2022-11-25T17:32:57.124Z,5.10
2022-11-25T17:35:27.662Z,5.10
2022-11-25T17:37:57.622Z,5.10
2022-11-25T17:40:27.600Z,5.00
2022-11-25T17:43:00.155Z,5.10
2022-11-25T17:45:30.089Z,5.00
2022-11-25T17:48:00.020Z,5.10
2022-11-25T17:50:29.946Z,5.00
2022-11-25T17:52:59.848Z,5.00
2022-11-25T17:55:29.678Z,4.90
2022-11-25T17:58:02.319Z,5.00
2022-11-25T18:00:34.292Z,5.00
2022-11-25T18:03:04.226Z,5.00
2022-11-25T18:05:35.115Z,5.20
2022-11-25T18:08:05.053Z,5.20
2022-11-25T18:10:35.027Z,5.20
2022-11-25T18:13:08.308Z,5.20
2022-11-25T18:15:38.655Z,5.20
2022-11-25T18:18:10.478Z,5.10
2022-11-25T18:20:40.536Z,5.10
2022-11-25T18:23:12.488Z,5.10
2022-11-25T18:25:43.365Z,5.10
2022-11-25T18:28:19.540Z,5.10
2022-11-25T18:30:49.651Z,5.20
2022-11-25T18:33:21.215Z,5.10
2022-11-25T18:35:51.154Z,5.10
2022-11-25T18:38:20.995Z,5.10
2022-11-25T18:40:53.784Z,5.10
2022-11-25T18:43:27.684Z,5.10
2022-11-25T18:45:58.129Z,5.20
2022-11-25T18:48:29.088Z,5.20
2022-11-25T18:50:59.170Z,5.10
2022-11-25T18:53:29.483Z,5.00
2022-11-25T18:55:59.293Z,5.00
2022-11-25T18:58:32.796Z,4.90
2022-11-25T19:01:06.527Z,4.90
2022-11-25T19:03:36.492Z,4.90
2022-11-25T19:06:06.521Z,4.90
2022-11-25T19:08:36.440Z,4.90
2022-11-25T19:11:06.268Z,4.80
2022-11-25T19:13:39.553Z,4.70
2022-11-25T19:16:12.284Z,4.80
2022-11-25T19:18:42.430Z,4.90
2022-11-25T19:21:13.867Z,4.90
2022-11-25T19:23:43.849Z,4.90
2022-11-25T19:26:16.788Z,4.80
2022-11-25T19:28:52.455Z,4.70
2022-11-25T19:31:22.769Z,4.70
2022-11-25T19:33:54.292Z,4.60
2022-11-25T19:36:27.131Z,4.30
2022-11-25T19:38:57.475Z,3.90
2022-11-25T19:41:27.496Z,3.70
2022-11-25T19:44:00.055Z,3.80
2022-11-25T19:46:46.350Z,4.10
2022-11-25T19:49:24.055Z,4.20
2022-11-25T19:51:53.930Z,4.20
2022-11-25T19:54:23.803Z,4.20
2022-11-25T19:56:53.654Z,4.20
2022-11-25T19:59:26.152Z,3.80
2022-11-25T20:01:56.079Z,3.70
2022-11-25T20:04:26.019Z,3.80
2022-11-25T20:06:55.876Z,3.80
2022-11-25T20:09:25.686Z,3.70
2022-11-25T20:11:58.817Z,3.70
2022-11-25T20:14:34.750Z,3.70
2022-11-25T20:17:07.837Z,3.60
2022-11-25T20:19:37.697Z,3.60
2022-11-25T20:22:07.700Z,3.40
2022-11-25T20:24:37.994Z,3.30
2022-11-25T20:27:08.157Z,3.30
2022-11-25T20:29:40.661Z,3.30
2022-11-25T20:32:22.176Z,3.10
2022-11-25T20:34:52.140Z,3.20
2022-11-25T20:37:24.118Z,3.50
2022-11-25T20:39:55.029Z,3.80
2022-11-25T20:42:25.472Z,4.00
2022-11-25T20:44:58.119Z,4.10
2022-11-25T20:47:28.425Z,4.10
2022-11-25T20:49:58.442Z,4.10
2022-11-25T20:52:32.942Z,4.10
2022-11-25T20:55:03.672Z,4.00
2022-11-25T20:57:33.534Z,4.20
2022-11-25T21:00:12.070Z,4.10
2022-11-25T21:02:42.024Z,4.20
2022-11-25T21:05:12.053Z,4.30
2022-11-25T21:07:42.384Z,4.30
2022-11-25T21:10:28.504Z,4.40
2022-11-25T21:12:59.358Z,4.50
2022-11-25T21:15:31.900Z,4.50
2022-11-25T21:18:01.766Z,4.60
2022-11-25T21:20:31.965Z,4.60
2022-11-25T21:23:05.598Z,4.60
2022-11-25T21:25:37.032Z,4.70
2022-11-25T21:28:07.559Z,4.70
2022-11-25T21:30:40.087Z,4.60
2022-11-25T21:33:13.048Z,4.70
2022-11-25T21:35:43.884Z,4.70
2022-11-25T21:38:18.689Z,4.60
2022-11-25T21:40:50.044Z,4.60
2022-11-25T21:43:22.030Z,4.60
2022-11-25T21:45:56.786Z,4.50
2022-11-25T21:48:28.473Z,4.40
2022-11-25T21:50:58.838Z,4.20
2022-11-25T21:53:33.175Z,4.10
2022-11-25T21:56:06.055Z,4.10
2022-11-25T21:58:36.342Z,4.20
2022-11-25T22:01:09.038Z,4.30
2022-11-25T22:03:39.017Z,4.30
2022-11-25T22:06:16.134Z,4.40
2022-11-25T22:08:46.068Z,4.60
2022-11-25T22:11:18.024Z,4.70
2022-11-25T22:13:49.047Z,4.80
2022-11-25T22:16:27.030Z,4.80
2022-11-25T22:18:57.127Z,4.90
2022-11-25T22:21:27.117Z,5.00
2022-11-25T22:23:57.004Z,5.00
2022-11-25T22:26:32.748Z,5.00
2022-11-25T22:29:03.500Z,5.00
2022-11-25T22:31:36.098Z,4.90
2022-11-25T22:34:06.095Z,4.80
2022-11-25T22:36:39.961Z,4.60
2022-11-25T22:39:16.856Z,4.60
2022-11-25T22:41:49.172Z,4.40
2022-11-25T22:44:23.330Z,4.50
2022-11-25T22:46:55.903Z,4.60
2022-11-25T22:49:46.242Z,4.50
2022-11-25T22:52:20.804Z,4.70
2022-11-25T22:54:50.731Z,4.80
2022-11-25T22:57:20.799Z,4.90
2022-11-25T22:59:50.669Z,5.00
2022-11-25T23:02:26.172Z,5.20
2022-11-25T23:04:57.974Z,5.10
2022-11-25T23:07:28.371Z,5.20
2022-11-25T23:09:58.332Z,5.30
2022-11-25T23:12:28.140Z,5.40
2022-11-25T23:14:57.988Z,5.50
2022-11-25T23:17:30.406Z,5.50
2022-11-25T23:20:00.491Z,5.40
2022-11-25T23:22:30.420Z,5.30
2022-11-25T23:25:00.214Z,5.30
2022-11-25T23:27:30.157Z,5.40
2022-11-25T23:29:59.978Z,5.30
2022-11-25T23:32:32.470Z,5.30
2022-11-25T23:35:02.430Z,5.20
2022-11-25T23:37:32.367Z,5.10
2022-11-25T23:40:02.274Z,5.10
2022-11-25T23:42:32.156Z,5.20
2022-11-25T23:45:01.997Z,5.20
2022-11-25T23:47:34.422Z,5.30
2022-11-25T23:50:04.351Z,5.40
2022-11-25T23:52:34.269Z,5.50
2022-11-25T23:55:04.168Z,5.70
2022-11-25T23:57:35.654Z,5.60
